Time;durP1;ratioP1;P1;durP2;ratioP2;P2;SDS_P1;SDS_P2;PMS_P1;PMS_P2;Temp;Humidity;BMP_temperature;BMP_pressure;BME280_temperature;BME280_humidity;BME280_pressure;Samples;Min_cycle;Max_cycle;Signal;HPM_P1;HPM_P2
2021/01/04 00:02:18;21099.00;0.07;37.17;0.00;0.00;0.62;;;;;6.10;1.00;;;;;;2258886;61;1191;-87
2021/01/04 00:05:12;124312.00;0.41;215.52;0.00;0.00;0.62;;;;;6.00;1.00;;;;;;2256001;61;1466;-87
2021/01/04 00:08:10;39789.00;0.13;69.52;0.00;0.00;0.62;;;;;5.60;1.00;;;;;;2258830;61;1157;-87
2021/01/04 00:11:15;33293.00;0.11;58.28;0.00;0.00;0.62;;;;;5.40;1.00;;;;;;2259910;61;1937;-87
2021/01/04 00:13:55;67106.00;0.22;116.76;0.00;0.00;0.62;;;;;5.10;1.00;;;;;;2255963;61;1193;-87
2021/01/04 00:16:35;42715.00;0.14;74.59;0.00;0.00;0.62;;;;;5.50;1.00;;;;;;2268049;61;1417;-88
2021/01/04 00:19:10;0.00;0.00;0.62;0.00;0.00;0.62;;;;;6.00;1.00;;;;;;2271894;61;1683;-88
2021/01/04 00:21:44;115796.00;0.39;200.83;0.00;0.00;0.62;;;;;6.30;1.00;;;;;;2274535;61;1262;-88
2021/01/04 00:24:25;91460.00;0.30;158.83;0.00;0.00;0.62;;;;;6.30;1.00;;;;;;2271281;61;1240;-86
2021/01/04 00:26:59;110719.00;0.37;192.07;0.00;0.00;0.62;;;;;5.70;1.00;;;;;;2271708;61;1452;-88
2021/01/04 00:29:27;51460.00;0.17;89.71;0.00;0.00;0.62;;;;;5.60;1.00;;;;;;2272022;61;1992;-87
2021/01/04 00:31:59;104424.00;0.35;181.21;0.00;0.00;0.62;;;;;5.70;1.00;;;;;;2271925;61;1226;-85
2021/01/04 00:34:28;112539.00;0.38;195.21;0.00;0.00;0.62;;;;;5.50;1.00;;;;;;2272747;61;1337;-86
2021/01/04 00:37:29;87705.00;0.29;152.34;0.00;0.00;0.62;;;;;5.90;1.00;;;;;;2271733;61;1320;-87
2021/01/04 00:40:04;43318.00;0.14;75.63;0.00;0.00;0.62;;;;;6.20;1.00;;;;;;2271155;61;1198;-87
2021/01/04 00:42:38;54707.00;0.18;95.33;0.00;0.00;0.62;;;;;5.80;1.00;;;;;;2271186;61;1248;-87
2021/01/04 00:45:17;55933.00;0.19;97.45;0.00;0.00;0.62;;;;;6.10;1.00;;;;;;2271207;61;1434;-87
2021/01/04 00:47:59;26149.00;0.09;45.92;0.00;0.00;0.62;;;;;6.40;1.00;;;;;;2274497;61;1271;-87
2021/01/04 00:51:07;0.00;0.00;0.62;0.00;0.00;0.62;;;;;6.70;1.00;;;;;;2267038;61;1926;-87
2021/01/04 00:53:38;244175.00;0.81;421.93;93871.00;0.31;162.99;;;;;7.50;1.00;;;;;;2271171;61;1206;-88
2021/01/04 00:56:26;348921.00;1.16;602.01;84819.00;0.28;147.36;;;;;7.20;1.00;;;;;;2271550;61;1502;-87
2021/01/04 00:59:25;249929.00;0.83;431.83;91643.00;0.31;159.14;;;;;6.70;1.00;;;;;;2270432;61;1187;-87
2021/01/04 01:02:07;461647.00;1.54;795.82;89623.00;0.30;155.66;;;;;6.70;1.00;;;;;;2270802;61;1196;-87
2021/01/04 01:04:40;340614.00;1.14;587.73;83147.00;0.28;144.47;;;;;6.40;1.00;;;;;;2273706;61;1351;-87
2021/01/04 01:07:13;60334.00;0.20;105.05;0.00;0.00;0.62;;;;;6.30;1.00;;;;;;2267306;61;1263;-88
2021/01/04 01:09:43;160925.00;0.54;278.63;0.00;0.00;0.62;;;;;6.30;1.00;;;;;;2271254;61;1928;-87
2021/01/04 01:12:36;98795.00;0.33;171.49;0.00;0.00;0.62;;;;;6.30;1.00;;;;;;2271989;61;1155;-87
2021/01/04 01:15:16;173454.00;0.58;300.22;88470.00;0.29;153.67;;;;;6.50;1.00;;;;;;2272486;61;1379;-87
2021/01/04 01:18:07;158793.00;0.53;274.96;0.00;0.00;0.62;;;;;6.60;1.00;;;;;;2272359;61;1176;-87
2021/01/04 01:20:37;58259.00;0.19;101.47;0.00;0.00;0.62;;;;;6.60;1.00;;;;;;2272786;61;1167;-88
2021/01/04 01:23:06;53140.00;0.18;92.62;0.00;0.00;0.62;;;;;6.50;1.00;;;;;;2272686;61;1146;-87
2021/01/04 01:25:42;105354.00;0.35;182.81;0.00;0.00;0.62;;;;;6.10;1.00;;;;;;2271735;61;1293;-87
2021/01/04 01:28:44;86775.00;0.29;150.74;0.00;0.00;0.62;;;;;5.90;1.00;;;;;;2272002;61;1145;-88
2021/01/04 01:31:45;13457.00;0.04;23.94;0.00;0.00;0.62;;;;;5.50;1.00;;;;;;2271389;61;1188;-87
2021/01/04 01:34:36;6060.00;0.02;11.12;0.00;0.00;0.62;;;;;5.80;1.00;;;;;;2272223;61;931;-88
2021/01/04 01:37:32;480695.00;1.60;828.59;82875.00;0.28;144.00;;;;;6.80;1.00;;;;;;2272967;61;1234;-86
2021/01/04 01:40:30;453183.00;1.51;781.26;86012.00;0.29;149.42;;;;;7.50;1.00;;;;;;2271980;61;1167;-88
2021/01/04 01:43:28;395357.00;1.32;681.82;0.00;0.00;0.62;;;;;7.60;1.00;;;;;;2273287;61;1653;-87
2021/01/04 01:46:01;348018.00;1.16;600.45;0.00;0.00;0.62;;;;;7.30;1.00;;;;;;2271985;61;1348;-87
2021/01/04 01:48:42;268751.00;0.90;464.20;0.00;0.00;0.62;;;;;7.20;1.00;;;;;;2272663;61;1281;-88
2021/01/04 01:51:31;157219.00;0.52;272.25;0.00;0.00;0.62;;;;;7.50;1.00;;;;;;2273286;61;1168;-86
2021/01/04 01:54:08;175431.00;0.58;303.62;0.00;0.00;0.62;;;;;7.30;1.00;;;;;;2272968;61;1147;-88
2021/01/04 01:56:47;204002.00;0.68;352.81;0.00;0.00;0.62;;;;;7.50;1.00;;;;;;2272563;61;1392;-88
2021/01/04 01:59:37;472900.00;1.58;815.18;88116.00;0.29;153.05;;;;;7.30;1.00;;;;;;2272065;61;1128;-88
2021/01/04 02:02:08;446911.00;1.49;770.47;81126.00;0.27;140.98;;;;;7.20;1.00;;;;;;2271720;61;1077;-88
2021/01/04 02:04:45;374790.00;1.25;646.47;92288.00;0.31;160.26;;;;;6.80;1.00;;;;;;2273207;61;1494;-85
2021/01/04 02:07:18;374551.00;1.25;646.06;80937.00;0.27;140.66;;;;;6.10;1.00;;;;;;2272707;61;1174;-89
2021/01/04 02:09:50;348505.00;1.16;601.29;77436.00;0.26;134.61;;;;;6.20;1.00;;;;;;2272488;61;1978;-88
2021/01/04 02:12:25;541608.00;1.81;933.49;86778.00;0.29;150.74;;;;;6.20;1.00;;;;;;2272998;61;1191;-85
2021/01/04 02:15:00;507209.00;1.69;874.24;145551.00;0.49;252.14;;;;;6.10;1.00;;;;;;2272963;61;1485;-87
2021/01/04 02:17:55;465010.00;1.55;801.60;84448.00;0.28;146.72;;;;;6.00;1.00;;;;;;2271530;61;1203;-88
2021/01/04 02:21:08;186957.00;0.62;323.47;0.00;0.00;0.62;;;;;6.10;1.00;;;;;;2270234;61;1177;-87
2021/01/04 02:23:44;98864.00;0.33;171.61;0.00;0.00;0.62;;;;;6.00;1.00;;;;;;2271073;61;1179;-87
2021/01/04 02:26:17;690342.00;2.30;1190.49;90721.00;0.30;157.55;;;;;6.20;1.00;;;;;;2266219;61;1404;-86
2021/01/04 02:28:56;520826.00;1.74;897.69;84211.00;0.28;146.31;;;;;5.80;1.00;;;;;;2266017;61;1923;-87
2021/01/04 02:31:24;658254.00;2.19;1134.92;82656.00;0.28;143.62;;;;;6.00;1.00;;;;;;2266781;61;1136;-87
2021/01/04 02:33:53;863751.00;2.88;1492.54;115521.00;0.39;200.36;;;;;5.90;1.00;;;;;;2267208;61;1175;-87
2021/01/04 02:36:22;583886.00;1.95;1006.40;83206.00;0.28;144.57;;;;;5.70;1.00;;;;;;2267080;61;1490;-86
2021/01/04 02:39:02;746941.00;2.49;1288.74;85662.00;0.29;148.82;;;;;5.40;1.00;;;;;;2266767;61;1164;-87
2021/01/04 02:41:41;556627.00;1.86;959.38;0.00;0.00;0.62;;;;;5.60;1.00;;;;;;2266403;61;1120;-87
2021/01/04 02:44:08;417368.00;1.39;719.66;0.00;0.00;0.62;;;;;5.90;1.00;;;;;;2268715;61;1175;-87
2021/01/04 02:46:39;777516.00;2.59;1341.94;83124.00;0.28;144.43;;;;;6.50;1.00;;;;;;2272968;61;1354;-87
2021/01/04 02:49:15;121575088.00;405.25;72795376.00;78512.00;0.26;136.47;;;;;6.80;1.00;;;;;;2271474;61;1989;-86
2021/01/04 02:51:49;478474.00;1.59;824.77;91709.00;0.31;159.26;;;;;7.00;1.00;;;;;;2271007;61;1104;-86
2021/01/04 02:54:23;522921.00;1.74;901.30;88637.00;0.30;153.95;;;;;6.10;1.00;;;;;;2270222;61;1278;-88
2021/01/04 02:57:14;345299.00;1.15;595.78;97292.00;0.32;168.90;;;;;5.40;1.00;;;;;;2270549;61;1443;-86
2021/01/04 02:59:50;524535.00;1.75;904.08;87318.00;0.29;151.68;;;;;5.70;1.00;;;;;;2271351;61;1275;-87
2021/01/04 03:02:30;544575.00;1.82;938.61;105743.00;0.35;183.48;;;;;6.40;1.00;;;;;;2270664;61;1248;-86
2021/01/04 03:04:58;331684.00;1.11;572.38;0.00;0.00;0.62;;;;;6.90;1.00;;;;;;2271208;61;1395;-86
2021/01/04 03:07:27;645022.00;2.15;1112.02;75368.00;0.25;131.04;;;;;6.90;1.00;;;;;;2271234;61;1183;-86
2021/01/04 03:09:57;633867.00;2.11;1092.73;90892.00;0.30;157.85;;;;;6.40;1.00;;;;;;2271604;61;2006;-86
2021/01/04 03:12:27;734416.00;2.45;1266.97;91629.00;0.31;159.12;;;;;6.10;1.00;;;;;;2272453;61;1102;-87
2021/01/04 03:15:10;615738.00;2.05;1061.40;88501.00;0.30;153.72;;;;;5.80;1.00;;;;;;2272553;61;1462;-86
2021/01/04 03:17:48;626428.00;2.09;1079.87;84008.00;0.28;145.96;;;;;6.70;1.00;;;;;;2272560;61;1199;-89
2021/01/04 03:20:18;608890.00;2.03;1049.57;83304.00;0.28;144.74;;;;;7.10;1.00;;;;;;2272380;61;1196;-88
2021/01/04 03:22:46;647228.00;2.16;1115.84;80675.00;0.27;140.20;;;;;7.20;1.00;;;;;;2268615;61;1244;-85
2021/01/04 03:25:20;659418.00;2.20;1136.93;84833.00;0.28;147.38;;;;;7.70;1.00;;;;;;2272692;61;1403;-87
2021/01/04 03:27:48;537538.00;1.79;926.48;52861.00;0.18;92.13;;;;;8.00;1.00;;;;;;2272408;61;1097;-86
2021/01/04 03:30:16;565153.00;1.88;974.09;84975.00;0.28;147.63;;;;;8.10;1.00;;;;;;2272360;61;1988;-86
2021/01/04 03:32:42;750638.00;2.50;1295.17;200302.00;0.67;346.44;;;;;8.20;1.00;;;;;;2272368;61;1009;-86
2021/01/04 03:35:10;294134.00;0.98;507.84;88047.00;0.29;152.94;;;;;7.90;1.00;;;;;;2263455;61;1459;-87
2021/01/04 03:37:36;547648.00;1.83;943.90;79030.00;0.26;137.36;;;;;8.30;1.00;;;;;;2270061;61;1115;-87
2021/01/04 03:40:07;692619.00;2.31;1194.44;77542.00;0.26;134.79;;;;;8.70;1.00;;;;;;2269679;61;1148;-87
2021/01/04 03:42:34;708478.00;2.36;1221.94;84819.00;0.28;147.36;;;;;8.40;1.00;;;;;;2270009;61;1139;-86
2021/01/04 03:45:02;453340.00;1.51;781.53;70812.00;0.24;123.16;;;;;8.00;1.00;;;;;;2270002;61;1276;-86
2021/01/04 03:47:29;773721.00;2.58;1335.33;85919.00;0.29;149.26;;;;;7.20;1.00;;;;;;2269823;61;1203;-86
2021/01/04 03:49:55;696378.00;2.32;1200.96;90165.00;0.30;156.59;;;;;6.80;1.00;;;;;;2269860;61;2006;-86
2021/01/04 03:52:22;615561.00;2.05;1061.10;88086.00;0.29;153.00;;;;;6.50;1.00;;;;;;2271417;61;1113;-87
2021/01/04 03:54:48;722027.00;2.41;1245.46;88224.00;0.29;153.24;;;;;7.10;1.00;;;;;;2271864;61;1293;-87
2021/01/04 03:57:14;593103.00;1.98;1022.31;78865.00;0.26;137.08;;;;;7.60;1.00;;;;;;2271439;61;1184;-87
2021/01/04 03:59:42;650190.00;2.17;1120.96;90413.00;0.30;157.02;;;;;8.20;1.00;;;;;;2271910;61;1108;-88
2021/01/04 04:02:10;562376.00;1.87;969.30;83655.00;0.28;145.35;;;;;8.20;1.00;;;;;;2272004;61;1144;-88
2021/01/04 04:04:36;772559.00;2.58;1333.31;84829.00;0.28;147.38;;;;;7.40;1.00;;;;;;2271395;61;1425;-88
2021/01/04 04:07:03;541332.00;1.80;933.02;97515.00;0.33;169.28;;;;;6.90;1.00;;;;;;2270855;61;1122;-87
2021/01/04 04:09:29;801027.00;2.67;1382.91;90734.00;0.30;157.58;;;;;6.60;1.00;;;;;;2272261;61;1997;-86
2021/01/04 04:11:55;615834.00;2.05;1061.57;96805.00;0.32;168.06;;;;;6.60;1.00;;;;;;2271724;61;1115;-89
2021/01/04 04:14:22;433106.00;1.44;746.73;83810.00;0.28;145.62;;;;;6.50;1.00;;;;;;2271009;61;1109;-87
2021/01/04 04:16:49;485823.00;1.62;837.42;82777.00;0.28;143.83;;;;;6.40;1.00;;;;;;2271691;61;1393;-88
2021/01/04 04:19:16;395470.00;1.32;682.02;91337.00;0.30;158.62;;;;;6.30;1.00;;;;;;2271321;61;1098;-88
2021/01/04 04:21:43;592217.00;1.97;1020.78;93923.00;0.31;163.08;;;;;6.40;1.00;;;;;;2270236;61;1122;-87
2021/01/04 04:24:10;395634.00;1.32;682.30;83871.00;0.28;145.72;;;;;6.10;1.00;;;;;;2270730;61;1084;-87
2021/01/04 04:26:36;359572.00;1.20;620.31;89133.00;0.30;154.81;;;;;6.00;1.00;;;;;;2272518;61;1409;-89
2021/01/04 04:29:02;454743.00;1.52;783.94;89732.00;0.30;155.84;;;;;6.40;1.00;;;;;;2271650;61;2004;-87
2021/01/04 04:31:29;281910.00;0.94;486.82;93017.00;0.31;161.52;;;;;7.00;1.00;;;;;;2271033;61;1176;-88
2021/01/04 04:33:55;389300.00;1.30;671.41;89979.00;0.30;156.27;;;;;6.70;1.00;;;;;;2269545;61;1119;-87
2021/01/04 04:36:27;327842.00;1.09;565.78;88696.00;0.30;154.06;;;;;6.50;1.00;;;;;;2268757;61;1300;-87
2021/01/04 04:38:54;634972.00;2.12;1094.64;90985.00;0.30;158.01;;;;;6.90;1.00;;;;;;2268873;61;1120;-88
2021/01/04 04:41:27;384423.00;1.28;663.03;88045.00;0.29;152.93;;;;;6.80;1.00;;;;;;2271607;61;1188;-87
2021/01/04 04:44:03;384687.00;1.28;663.48;92039.00;0.31;159.83;;;;;7.20;1.00;;;;;;2270486;61;1113;-87
2021/01/04 04:46:47;578055.00;1.93;996.34;78875.00;0.26;137.09;;;;;7.70;1.00;;;;;;2270556;61;1394;-87
2021/01/04 04:49:27;333247.00;1.11;575.07;0.00;0.00;0.62;;;;;7.80;1.00;;;;;;2270881;61;1959;-85
2021/01/04 04:52:08;301774.00;1.01;520.97;0.00;0.00;0.62;;;;;7.80;1.00;;;;;;2267916;61;1092;-87
2021/01/04 04:54:51;333636.00;1.11;575.74;0.00;0.00;0.62;;;;;8.00;1.00;;;;;;2268887;61;1373;-86
2021/01/04 04:57:43;293983.00;0.98;507.58;83617.00;0.28;145.28;;;;;8.00;1.00;;;;;;2269999;61;1093;-87
2021/01/04 05:00:25;553951.00;1.85;954.77;91890.00;0.31;159.57;;;;;8.60;1.00;;;;;;2269518;61;1126;-88
2021/01/04 05:03:07;170861.00;0.57;295.75;86646.00;0.29;150.52;;;;;8.60;1.00;;;;;;2269981;61;1184;-87
2021/01/04 05:05:48;179698.00;0.60;310.97;76698.00;0.26;133.33;;;;;7.90;1.00;;;;;;2269754;61;1384;-87
2021/01/04 05:08:39;82667.00;0.28;143.64;0.00;0.00;0.62;;;;;7.70;1.00;;;;;;2269267;61;1157;-88
2021/01/04 05:11:08;185022.00;0.62;320.14;28116.00;0.09;49.32;;;;;7.90;1.00;;;;;;2269417;61;1948;-87
2021/01/04 05:13:39;112329.00;0.37;194.85;0.00;0.00;0.62;;;;;7.40;1.00;;;;;;2269773;61;1160;-88
2021/01/04 05:16:10;124153.00;0.41;215.25;0.00;0.00;0.62;;;;;6.90;1.00;;;;;;2271143;61;1470;-87
2021/01/04 05:19:24;91120.00;0.30;158.24;0.00;0.00;0.62;;;;;6.70;1.00;;;;;;2271227;61;1722;-88
2021/01/04 05:22:47;179002.00;0.60;309.77;0.00;0.00;0.62;;;;;7.10;1.00;;;;;;2261498;61;1241;-88
2021/01/04 05:25:51;151705.00;0.51;262.75;0.00;0.00;0.62;;;;;6.80;1.00;;;;;;2270706;61;1363;-87
2021/01/04 05:28:57;110855.00;0.37;192.31;0.00;0.00;0.62;;;;;6.50;1.00;;;;;;2271519;61;1105;-87
2021/01/04 05:31:45;221237.00;0.74;382.47;0.00;0.00;0.62;;;;;6.50;1.00;;;;;;2270874;61;1977;-86
2021/01/04 05:34:20;57663.00;0.19;100.44;0.00;0.00;0.62;;;;;6.60;1.00;;;;;;2271492;61;1182;-87
2021/01/04 05:37:16;38632.00;0.13;67.52;0.00;0.00;0.62;;;;;6.70;1.00;;;;;;2270229;61;1481;-87
2021/01/04 05:40:06;0.00;0.00;0.62;0.00;0.00;0.62;;;;;6.70;1.00;;;;;;2263619;61;1738;-88
2021/01/04 05:42:46;90394.00;0.30;156.99;16130.00;0.05;28.57;;;;;6.80;1.00;;;;;;2270550;61;1169;-86
2021/01/04 05:45:20;37974.00;0.13;66.38;0.00;0.00;0.62;;;;;6.40;1.00;;;;;;2270830;61;1521;-87
2021/01/04 05:48:00;181513.00;0.61;314.10;0.00;0.00;0.62;;;;;6.50;1.00;;;;;;2270930;61;1246;-87
2021/01/04 05:50:35;230624.00;0.77;398.62;0.00;0.00;0.62;;;;;6.40;1.00;;;;;;2269381;61;2000;-87
2021/01/04 05:53:04;25951.00;0.09;45.57;0.00;0.00;0.62;;;;;6.90;1.00;;;;;;2270020;61;1266;-88
2021/01/04 05:55:31;83561.00;0.28;145.19;0.00;0.00;0.62;;;;;6.80;1.00;;;;;;2269389;61;1387;-87
2021/01/04 05:58:11;8204.00;0.03;14.84;0.00;0.00;0.62;;;;;6.70;1.00;;;;;;2269228;61;1112;-87
2021/01/04 06:00:38;6396.00;0.02;11.70;0.00;0.00;0.62;;;;;6.60;1.00;;;;;;2269188;61;1131;-87
2021/01/04 06:03:10;77969.00;0.26;135.53;0.00;0.00;0.62;;;;;6.30;1.00;;;;;;2268977;61;1174;-88
2021/01/04 06:05:37;104164.00;0.35;180.76;0.00;0.00;0.62;;;;;6.40;1.00;;;;;;2268427;61;1428;-87
2021/01/04 06:08:04;38981.00;0.13;68.13;0.00;0.00;0.62;;;;;6.10;1.00;;;;;;2269089;61;1172;-88
2021/01/04 06:10:33;69335.00;0.23;120.61;0.00;0.00;0.62;;;;;6.50;1.00;;;;;;2269469;61;2022;-88
2021/01/04 06:13:02;51752.00;0.17;90.22;0.00;0.00;0.62;;;;;6.40;1.00;;;;;;2269983;61;1114;-87
2021/01/04 06:15:32;114577.00;0.38;198.73;0.00;0.00;0.62;;;;;6.10;1.00;;;;;;2269763;61;1351;-86
2021/01/04 06:18:08;67022.00;0.22;116.61;0.00;0.00;0.62;;;;;6.00;1.00;;;;;;2269550;61;1144;-86
2021/01/04 06:20:59;82406.00;0.27;143.19;0.00;0.00;0.62;;;;;5.70;1.00;;;;;;2270089;61;1195;-87
2021/01/04 06:23:31;237651.00;0.79;410.71;0.00;0.00;0.62;;;;;6.20;1.00;;;;;;2268993;61;1184;-87
2021/01/04 06:25:59;76436.00;0.25;132.88;0.00;0.00;0.62;;;;;6.40;1.00;;;;;;2269239;61;1430;-87
2021/01/04 06:28:26;27408.00;0.09;48.10;0.00;0.00;0.62;;;;;6.10;1.00;;;;;;2271298;61;1199;-87
2021/01/04 06:31:04;0.00;0.00;0.62;0.00;0.00;0.62;;;;;5.90;1.00;;;;;;2268187;61;2005;-87
2021/01/04 06:33:32;16370.00;0.05;28.98;0.00;0.00;0.62;;;;;5.80;1.00;;;;;;2268052;61;1133;-87
2021/01/04 06:36:04;48885.00;0.16;85.26;0.00;0.00;0.62;;;;;6.50;1.00;;;;;;2267687;61;1376;-87
2021/01/04 06:38:33;29327.00;0.10;51.42;0.00;0.00;0.62;;;;;7.40;1.00;;;;;;2268647;61;1120;-87
2021/01/04 06:41:11;21066.00;0.07;37.12;0.00;0.00;0.62;;;;;8.00;1.00;;;;;;2268452;61;1117;-87
2021/01/04 06:43:39;1257.00;0.00;2.80;0.00;0.00;0.62;;;;;8.20;1.00;;;;;;2268565;61;1204;-87
2021/01/04 06:46:33;190517.00;0.64;329.60;12494.00;0.04;22.27;;;;;7.30;1.00;;;;;;2269383;61;1384;-87
2021/01/04 06:49:03;105072.00;0.35;182.33;0.00;0.00;0.62;;;;;6.40;1.00;;;;;;2260820;61;1089;-87
2021/01/04 06:52:04;261234.00;0.87;451.27;0.00;0.00;0.62;;;;;6.50;1.00;;;;;;2261223;61;1944;-87
2021/01/04 06:54:54;179257.00;0.60;310.21;0.00;0.00;0.62;;;;;6.90;1.00;;;;;;2253895;61;1249;-87
2021/01/04 06:57:53;0.00;0.00;0.62;0.00;0.00;0.62;;;;;6.60;1.00;;;;;;2258847;61;1296;-87
2021/01/04 07:00:34;137362.00;0.46;238.02;0.00;0.00;0.62;;;;;6.10;1.00;;;;;;2260812;61;1418;-87
2021/01/04 07:03:44;78223.00;0.26;135.97;0.00;0.00;0.62;;;;;5.70;1.00;;;;;;2264235;61;1131;-87
2021/01/04 07:06:38;139810.00;0.47;242.24;16033.00;0.05;28.40;;;;;5.80;1.00;;;;;;2257216;61;1417;-87
2021/01/04 07:09:47;0.00;0.00;0.62;0.00;0.00;0.62;;;;;5.60;1.00;;;;;;2253784;61;1296;-88
2021/01/04 07:12:23;137956.00;0.46;239.05;0.00;0.00;0.62;;;;;6.20;1.00;;;;;;2252318;61;1244;-86
2021/01/04 07:15:09;161845.00;0.54;280.22;21171.00;0.07;37.30;;;;;6.00;1.00;;;;;;2253563;61;1371;-86
2021/01/04 07:18:31;0.00;0.00;0.62;0.00;0.00;0.62;;;;;6.00;1.00;;;;;;2263279;61;1231;-88
2021/01/04 07:21:25;24736.00;0.08;43.47;0.00;0.00;0.62;;;;;6.20;1.00;;;;;;2247163;62;1130;-87
2021/01/04 07:24:07;53215.00;0.18;92.75;0.00;0.00;0.62;;;;;6.50;1.00;;;;;;2245825;62;1133;-87
2021/01/04 07:26:44;105211.00;0.35;182.57;0.00;0.00;0.62;;;;;6.70;1.00;;;;;;2263146;61;1430;-86
2021/01/04 07:29:31;184343.00;0.61;318.97;30894.00;0.10;54.13;;;;;6.30;1.00;;;;;;2268214;61;1168;-87
2021/01/04 07:32:05;184713.00;0.62;319.61;86096.00;0.29;149.57;;;;;6.30;1.00;;;;;;2268058;61;1162;-87
2021/01/04 07:34:39;56325.00;0.19;98.12;0.00;0.00;0.62;;;;;6.80;1.00;;;;;;2267857;61;1810;-87
2021/01/04 07:37:30;15595.00;0.05;27.64;0.00;0.00;0.62;;;;;7.20;1.00;;;;;;2268204;61;1286;-87
2021/01/04 07:40:08;141808.00;0.47;245.69;23519.00;0.08;41.36;;;;;7.50;1.00;;;;;;2267452;61;1260;-87
2021/01/04 07:43:14;202021.00;0.67;349.40;91234.00;0.30;158.44;;;;;6.60;1.00;;;;;;2268085;61;1167;-87
2021/01/04 07:46:01;555129.00;1.85;956.80;87070.00;0.29;151.25;;;;;7.00;1.00;;;;;;2267933;61;1450;-87
2021/01/04 07:49:02;245395.00;0.82;424.03;97947.00;0.33;170.03;;;;;7.50;1.00;;;;;;2267416;61;916;-87
2021/01/04 07:51:49;43993.00;0.15;76.80;0.00;0.00;0.62;;;;;7.30;1.00;;;;;;2267465;61;1934;-87
2021/01/04 07:54:53;95251.00;0.32;165.37;0.00;0.00;0.62;;;;;6.70;1.00;;;;;;2267839;61;1179;-86
2021/01/04 07:57:53;65882.00;0.22;114.64;0.00;0.00;0.62;;;;;6.20;1.00;;;;;;2266626;61;1188;-87
2021/01/04 08:00:51;22606.00;0.08;39.78;0.00;0.00;0.62;;;;;6.10;1.00;;;;;;2268876;61;1547;-86
2021/01/04 08:03:59;60241.00;0.20;104.89;0.00;0.00;0.62;;;;;6.00;1.00;;;;;;2268579;61;1255;-87
2021/01/04 08:07:07;64974.00;0.22;113.07;0.00;0.00;0.62;;;;;6.90;1.00;;;;;;2259871;61;1758;-86
2021/01/04 08:10:06;8276.00;0.03;14.96;0.00;0.00;0.62;;;;;7.30;1.00;;;;;;2268371;61;2002;-88
2021/01/04 08:13:42;;;;;;;;;;;;;;;;;;;;;
2021/01/04 08:16:23;49670.00;0.17;86.62;0.00;0.00;0.62;;;;;6.80;1.00;;;;;;2259571;61;1379;-87
2021/01/04 08:19:04;287601.00;0.96;496.61;25103.00;0.08;44.11;;;;;7.00;1.00;;;;;;2259605;61;1169;-86
2021/01/04 08:21:47;43298.00;0.14;75.59;0.00;0.00;0.62;;;;;7.50;1.00;;;;;;2260157;61;1148;-87
2021/01/04 08:24:25;65317.00;0.22;113.67;0.00;0.00;0.62;;;;;7.40;1.00;;;;;;2259952;61;1275;-86
2021/01/04 08:27:23;285039.00;0.95;492.20;0.00;0.00;0.62;;;;;7.20;1.00;;;;;;2259873;61;1734;-87
2021/01/04 08:30:04;226024.00;0.75;390.71;0.00;0.00;0.62;;;;;6.50;1.00;;;;;;2263354;61;1993;-87
2021/01/04 08:32:52;41227.00;0.14;72.01;0.00;0.00;0.62;;;;;6.20;1.00;;;;;;2262988;61;1188;-88
2021/01/04 08:35:38;43223.00;0.14;75.46;0.00;0.00;0.62;;;;;6.70;1.00;;;;;;2250340;61;1441;-88
2021/01/04 08:38:40;108367.00;0.36;188.01;0.00;0.00;0.62;;;;;6.90;1.00;;;;;;2246886;62;1095;-88
2021/01/04 08:41:25;34823.00;0.12;60.93;0.00;0.00;0.62;;;;;6.90;1.00;;;;;;2244682;62;1267;-88
2021/01/04 08:44:14;;;;;;;;;;;;;;;;;;;;;
2021/01/04 08:46:48;225813.00;0.75;390.35;0.00;0.00;0.62;;;;;6.20;1.00;;;;;;2241013;62;1382;-89
2021/01/04 08:49:40;38343.00;0.13;67.02;0.00;0.00;0.62;;;;;6.20;1.00;;;;;;2241475;62;1198;-89
2021/01/04 08:52:20;40171.00;0.13;70.18;0.00;0.00;0.62;;;;;6.20;1.00;;;;;;2244532;61;1273;-88
2021/01/04 08:55:00;0.00;0.00;0.62;0.00;0.00;0.62;;;;;6.70;1.00;;;;;;2264073;61;1370;-88
2021/01/04 08:58:03;33338.00;0.11;58.36;0.00;0.00;0.62;;;;;7.50;1.00;;;;;;2268359;61;1165;-89
2021/01/04 09:01:05;186080.00;0.62;321.96;0.00;0.00;0.62;;;;;7.30;1.00;;;;;;2268372;61;1277;-89
2021/01/04 09:03:43;51883.00;0.17;90.44;0.00;0.00;0.62;;;;;7.00;1.00;;;;;;2271711;61;1124;-89
2021/01/04 09:06:36;70315.00;0.23;122.30;0.00;0.00;0.62;;;;;7.40;1.00;;;;;;2271318;61;1410;-89
2021/01/04 09:09:32;62744.00;0.21;109.22;0.00;0.00;0.62;;;;;7.10;1.00;;;;;;2265885;61;1188;-87
2021/01/04 09:12:06;65568.00;0.22;114.10;0.00;0.00;0.62;;;;;6.40;1.00;;;;;;2263107;61;1224;-89
2021/01/04 09:14:51;177752.00;0.59;307.62;0.00;0.00;0.62;;;;;6.30;1.00;;;;;;2254582;61;1272;-88
2021/01/04 09:17:43;19357.00;0.06;34.16;0.00;0.00;0.62;;;;;6.40;1.00;;;;;;2258151;61;1097;-88
2021/01/04 09:20:49;119692.00;0.40;207.55;0.00;0.00;0.62;;;;;6.30;1.00;;;;;;2254840;61;1324;-88
2021/01/04 09:23:38;102308.00;0.34;177.56;0.00;0.00;0.62;;;;;6.60;1.00;;;;;;2268789;61;1063;-86
2021/01/04 09:26:30;88673.00;0.30;154.02;0.00;0.00;0.62;;;;;6.60;1.00;;;;;;2268600;61;1516;-88
2021/01/04 09:29:22;107769.00;0.36;186.98;0.00;0.00;0.62;;;;;5.90;1.00;;;;;;2261652;61;1030;-89
2021/01/04 09:32:22;73860.00;0.25;128.43;0.00;0.00;0.62;;;;;5.40;1.00;;;;;;2272038;61;1983;-88
2021/01/04 09:34:50;429452.00;1.43;740.44;91710.00;0.31;159.26;;;;;5.30;1.00;;;;;;2272781;61;1443;-85
2021/01/04 09:37:35;419274.00;1.40;722.94;136178.00;0.45;235.98;;;;;5.40;1.00;;;;;;2272849;61;1144;-86
2021/01/04 09:40:18;330294.00;1.10;569.99;106315.00;0.35;184.47;;;;;5.60;1.00;;;;;;2266075;61;1018;-87
2021/01/04 09:43:07;368395.00;1.23;635.48;97499.00;0.32;169.25;;;;;5.80;1.00;;;;;;2273165;61;925;-86
2021/01/04 09:46:21;341683.00;1.14;589.57;87628.00;0.29;152.21;;;;;6.00;1.00;;;;;;2270709;61;1567;-88
2021/01/04 09:51:50;256078.00;0.85;442.40;0.00;0.00;0.62;;;;;5.70;1.00;;;;;;2270588;61;1932;-88
2021/01/04 09:54:28;496207.00;1.65;855.29;16056.00;0.05;28.44;;;;;6.30;1.00;;;;;;2270331;61;1242;-88
2021/01/04 09:57:11;503139.00;1.68;867.23;86154.00;0.29;149.67;;;;;6.00;1.00;;;;;;2269911;61;1365;-88
2021/01/04 09:59:51;661290.00;2.20;1140.17;88163.00;0.29;153.14;;;;;5.80;1.00;;;;;;2263667;61;994;-88
2021/01/04 10:02:43;443558.00;1.48;764.70;104796.00;0.35;181.85;;;;;6.10;1.00;;;;;;2260337;61;1174;-89
2021/01/04 10:05:26;367969.00;1.23;634.75;87808.00;0.29;152.52;;;;;6.90;1.00;;;;;;2270262;61;1393;-88
2021/01/04 10:08:03;396532.00;1.32;683.84;86622.00;0.29;150.47;;;;;7.40;1.00;;;;;;2270027;61;1247;-89
2021/01/04 10:10:57;482529.00;1.61;831.75;90639.00;0.30;157.41;;;;;7.10;1.00;;;;;;2259370;61;2001;-88
2021/01/04 10:13:52;309507.00;1.03;534.26;0.00;0.00;0.62;;;;;7.40;1.00;;;;;;2269712;61;1239;-88
2021/01/04 10:16:28;230018.00;0.77;397.58;0.00;0.00;0.62;;;;;7.20;1.00;;;;;;2258188;61;1385;-89
2021/01/04 10:19:19;150394.00;0.50;260.49;0.00;0.00;0.62;;;;;7.50;1.00;;;;;;2271147;61;1417;-89
2021/01/04 10:22:03;264152.00;0.88;456.29;0.00;0.00;0.62;;;;;7.50;1.00;;;;;;2272814;61;1172;-87
2021/01/04 10:27:35;400312.00;1.33;690.34;83743.00;0.28;145.50;;;;;7.40;1.00;;;;;;2271521;61;1041;-88
2021/01/04 10:30:21;301581.00;1.01;520.64;94507.00;0.32;164.09;;;;;7.80;1.00;;;;;;2272842;61;2012;-87
2021/01/04 10:33:13;494701.00;1.65;852.70;88548.00;0.30;153.80;;;;;7.90;1.00;;;;;;2271718;61;1173;-88
2021/01/04 10:35:51;845360.00;2.82;1460.35;99749.00;0.33;173.14;;;;;7.40;1.00;;;;;;2271461;61;1488;-88
2021/01/04 10:38:45;422844.00;1.41;729.08;82325.00;0.27;143.05;;;;;7.50;1.00;;;;;;2267559;61;1268;-88
2021/01/04 10:41:32;434511.00;1.45;749.14;0.00;0.00;0.62;;;;;7.10;1.00;;;;;;2270445;61;1151;-88
2021/01/04 10:44:29;628340.00;2.09;1083.18;99799.00;0.33;173.22;;;;;6.50;1.00;;;;;;2271086;61;1114;-89
2021/01/04 10:47:06;429516.00;1.43;740.55;98053.00;0.33;170.21;;;;;6.40;1.00;;;;;;2266756;61;1352;-88
2021/01/04 10:50:00;349762.00;1.17;603.45;92251.00;0.31;160.19;;;;;6.70;1.00;;;;;;2270916;61;1980;-89
2021/01/04 10:52:35;396715.00;1.32;684.16;145505.00;0.49;252.06;;;;;6.70;1.00;;;;;;2270318;61;1073;-88
2021/01/04 10:55:31;198752.00;0.66;343.78;87117.00;0.29;151.33;;;;;6.40;1.00;;;;;;2270574;61;1446;-88
2021/01/04 10:58:17;525914.00;1.75;906.45;110923.00;0.37;192.42;;;;;6.30;1.00;;;;;;2269643;61;1173;-88
2021/01/04 11:00:57;368017.00;1.23;634.83;86505.00;0.29;150.27;;;;;6.50;1.00;;;;;;2266381;61;1161;-89